sensor_id;sensor_type;location;lat;lon;timestamp;P1;durP1;ratioP1;P2;durP2;ratioP2
12519;SDS011;6325;49.540;8.364;2023-06-14T00:00:16;3.10;;;2.90;;
12519;SDS011;6325;49.540;8.364;2023-06-14T00:02:45;3.10;;;2.90;;
12519;SDS011;6325;49.540;8.364;2023-06-14T00:05:13;3.42;;;3.17;;
12519;SDS011;6325;49.540;8.364;2023-06-14T00:07:41;3.42;;;3.13;;
12519;SDS011;6325;49.540;8.364;2023-06-14T00:10:08;3.25;;;3.05;;
12519;SDS011;6325;49.540;8.364;2023-06-14T00:12:36;3.13;;;2.92;;
12519;SDS011;6325;49.540;8.364;2023-06-14T00:15:03;3.60;;;3.30;;
12519;SDS011;6325;49.540;8.364;2023-06-14T00:17:30;3.25;;;3.05;;
12519;SDS011;6325;49.540;8.364;2023-06-14T00:19:59;3.50;;;3.30;;
12519;SDS011;6325;49.540;8.364;2023-06-14T00:22:30;3.30;;;3.10;;
12519;SDS011;6325;49.540;8.364;2023-06-14T00:24:57;3.00;;;2.80;;
12519;SDS011;6325;49.540;8.364;2023-06-14T00:27:25;3.22;;;3.03;;
12519;SDS011;6325;49.540;8.364;2023-06-14T00:29:52;3.30;;;3.10;;
12519;SDS011;6325;49.540;8.364;2023-06-14T00:32:19;3.28;;;3.08;;
12519;SDS011;6325;49.540;8.364;2023-06-14T00:34:50;3.55;;;3.30;;
12519;SDS011;6325;49.540;8.364;2023-06-14T00:37:17;3.15;;;2.95;;
12519;SDS011;6325;49.540;8.364;2023-06-14T00:39:46;3.30;;;3.10;;
12519;SDS011;6325;49.540;8.364;2023-06-14T00:42:22;3.40;;;3.20;;
12519;SDS011;6325;49.540;8.364;2023-06-14T00:44:50;3.30;;;3.10;;
12519;SDS011;6325;49.540;8.364;2023-06-14T00:47:17;3.43;;;3.23;;
12519;SDS011;6325;49.540;8.364;2023-06-14T00:49:45;3.45;;;3.25;;
12519;SDS011;6325;49.540;8.364;2023-06-14T00:52:13;3.58;;;3.30;;
12519;SDS011;6325;49.540;8.364;2023-06-14T00:54:40;3.28;;;3.08;;
12519;SDS011;6325;49.540;8.364;2023-06-14T00:57:09;3.65;;;3.40;;
12519;SDS011;6325;49.540;8.364;2023-06-14T00:59:38;3.65;;;3.45;;
12519;SDS011;6325;49.540;8.364;2023-06-14T01:02:07;3.53;;;3.33;;
12519;SDS011;6325;49.540;8.364;2023-06-14T01:04:34;3.67;;;3.47;;
12519;SDS011;6325;49.540;8.364;2023-06-14T01:07:04;3.55;;;3.35;;
12519;SDS011;6325;49.540;8.364;2023-06-14T01:09:41;3.83;;;3.53;;
12519;SDS011;6325;49.540;8.364;2023-06-14T01:12:13;3.50;;;3.30;;
12519;SDS011;6325;49.540;8.364;2023-06-14T01:14:41;3.70;;;3.40;;
12519;SDS011;6325;49.540;8.364;2023-06-14T01:17:09;3.50;;;3.30;;
12519;SDS011;6325;49.540;8.364;2023-06-14T01:19:40;3.70;;;3.50;;
12519;SDS011;6325;49.540;8.364;2023-06-14T01:22:08;3.70;;;3.40;;
12519;SDS011;6325;49.540;8.364;2023-06-14T01:24:36;4.03;;;3.67;;
12519;SDS011;6325;49.540;8.364;2023-06-14T01:27:04;4.38;;;3.80;;
12519;SDS011;6325;49.540;8.364;2023-06-14T01:29:33;4.00;;;3.70;;
12519;SDS011;6325;49.540;8.364;2023-06-14T01:32:01;3.70;;;3.50;;
12519;SDS011;6325;49.540;8.364;2023-06-14T01:34:29;3.65;;;3.40;;
12519;SDS011;6325;49.540;8.364;2023-06-14T01:36:56;4.10;;;3.80;;
12519;SDS011;6325;49.540;8.364;2023-06-14T01:39:24;3.70;;;3.40;;
12519;SDS011;6325;49.540;8.364;2023-06-14T01:41:52;4.18;;;3.85;;
12519;SDS011;6325;49.540;8.364;2023-06-14T01:44:19;3.60;;;3.40;;
12519;SDS011;6325;49.540;8.364;2023-06-14T01:46:46;3.90;;;3.70;;
12519;SDS011;6325;49.540;8.364;2023-06-14T01:49:14;4.15;;;3.80;;
12519;SDS011;6325;49.540;8.364;2023-06-14T01:51:41;3.80;;;3.60;;
12519;SDS011;6325;49.540;8.364;2023-06-14T01:54:08;3.72;;;3.45;;
12519;SDS011;6325;49.540;8.364;2023-06-14T01:56:36;3.97;;;3.78;;
12519;SDS011;6325;49.540;8.364;2023-06-14T01:59:04;4.00;;;3.70;;
12519;SDS011;6325;49.540;8.364;2023-06-14T02:01:31;4.23;;;3.83;;
12519;SDS011;6325;49.540;8.364;2023-06-14T02:03:59;3.92;;;3.65;;
12519;SDS011;6325;49.540;8.364;2023-06-14T02:06:26;3.90;;;3.60;;
12519;SDS011;6325;49.540;8.364;2023-06-14T02:08:54;4.30;;;4.00;;
12519;SDS011;6325;49.540;8.364;2023-06-14T02:11:21;4.10;;;3.80;;
12519;SDS011;6325;49.540;8.364;2023-06-14T02:13:48;4.10;;;3.80;;
12519;SDS011;6325;49.540;8.364;2023-06-14T02:16:17;4.28;;;3.97;;
12519;SDS011;6325;49.540;8.364;2023-06-14T02:18:44;4.60;;;4.20;;
12519;SDS011;6325;49.540;8.364;2023-06-14T02:21:11;4.00;;;3.70;;
12519;SDS011;6325;49.540;8.364;2023-06-14T02:23:38;4.30;;;4.00;;
12519;SDS011;6325;49.540;8.364;2023-06-14T02:26:06;4.20;;;3.90;;
12519;SDS011;6325;49.540;8.364;2023-06-14T02:28:33;4.50;;;4.10;;
12519;SDS011;6325;49.540;8.364;2023-06-14T02:31:01;4.00;;;3.80;;
12519;SDS011;6325;49.540;8.364;2023-06-14T02:33:29;4.20;;;3.90;;
12519;SDS011;6325;49.540;8.364;2023-06-14T02:35:57;4.30;;;4.00;;
12519;SDS011;6325;49.540;8.364;2023-06-14T02:38:24;4.45;;;4.15;;
12519;SDS011;6325;49.540;8.364;2023-06-14T02:40:51;4.23;;;3.83;;
12519;SDS011;6325;49.540;8.364;2023-06-14T02:43:18;4.43;;;4.13;;
12519;SDS011;6325;49.540;8.364;2023-06-14T02:45:46;4.00;;;3.80;;
12519;SDS011;6325;49.540;8.364;2023-06-14T02:48:13;3.95;;;3.65;;
12519;SDS011;6325;49.540;8.364;2023-06-14T02:50:41;4.25;;;3.95;;
12519;SDS011;6325;49.540;8.364;2023-06-14T02:53:08;4.13;;;3.92;;
12519;SDS011;6325;49.540;8.364;2023-06-14T02:55:37;4.05;;;3.85;;
12519;SDS011;6325;49.540;8.364;2023-06-14T02:58:04;4.15;;;3.85;;
12519;SDS011;6325;49.540;8.364;2023-06-14T03:00:31;4.28;;;3.97;;
12519;SDS011;6325;49.540;8.364;2023-06-14T03:03:01;4.28;;;3.97;;
12519;SDS011;6325;49.540;8.364;2023-06-14T03:05:29;4.60;;;4.20;;
12519;SDS011;6325;49.540;8.364;2023-06-14T03:07:59;4.25;;;3.90;;
12519;SDS011;6325;49.540;8.364;2023-06-14T03:10:27;4.32;;;4.03;;
12519;SDS011;6325;49.540;8.364;2023-06-14T03:12:54;4.50;;;4.10;;
12519;SDS011;6325;49.540;8.364;2023-06-14T03:15:21;4.15;;;3.90;;
12519;SDS011;6325;49.540;8.364;2023-06-14T03:17:49;4.20;;;3.90;;
12519;SDS011;6325;49.540;8.364;2023-06-14T03:20:18;4.07;;;3.70;;
12519;SDS011;6325;49.540;8.364;2023-06-14T03:22:45;3.97;;;3.78;;
12519;SDS011;6325;49.540;8.364;2023-06-14T03:25:14;4.13;;;3.83;;
12519;SDS011;6325;49.540;8.364;2023-06-14T03:27:41;4.50;;;4.20;;
12519;SDS011;6325;49.540;8.364;2023-06-14T03:30:09;4.22;;;3.72;;
12519;SDS011;6325;49.540;8.364;2023-06-14T03:32:36;3.80;;;3.60;;
12519;SDS011;6325;49.540;8.364;2023-06-14T03:35:03;4.25;;;3.85;;
12519;SDS011;6325;49.540;8.364;2023-06-14T03:37:31;4.05;;;3.75;;
12519;SDS011;6325;49.540;8.364;2023-06-14T03:39:58;4.30;;;3.92;;
12519;SDS011;6325;49.540;8.364;2023-06-14T03:42:27;4.35;;;4.00;;
12519;SDS011;6325;49.540;8.364;2023-06-14T03:44:54;4.25;;;3.95;;
12519;SDS011;6325;49.540;8.364;2023-06-14T03:47:21;4.20;;;3.83;;
12519;SDS011;6325;49.540;8.364;2023-06-14T03:49:49;4.30;;;3.90;;
12519;SDS011;6325;49.540;8.364;2023-06-14T03:52:16;4.38;;;3.97;;
12519;SDS011;6325;49.540;8.364;2023-06-14T03:54:43;4.03;;;3.72;;
12519;SDS011;6325;49.540;8.364;2023-06-14T03:57:11;3.88;;;3.67;;
12519;SDS011;6325;49.540;8.364;2023-06-14T03:59:40;4.45;;;4.05;;
12519;SDS011;6325;49.540;8.364;2023-06-14T04:02:07;4.20;;;3.90;;
12519;SDS011;6325;49.540;8.364;2023-06-14T04:04:35;3.80;;;3.60;;
12519;SDS011;6325;49.540;8.364;2023-06-14T04:07:02;4.07;;;3.78;;
12519;SDS011;6325;49.540;8.364;2023-06-14T04:09:30;3.87;;;3.57;;
12519;SDS011;6325;49.540;8.364;2023-06-14T04:11:57;4.20;;;3.90;;
12519;SDS011;6325;49.540;8.364;2023-06-14T04:14:24;4.00;;;3.70;;
12519;SDS011;6325;49.540;8.364;2023-06-14T04:16:53;4.50;;;4.10;;
12519;SDS011;6325;49.540;8.364;2023-06-14T04:19:20;4.22;;;3.92;;
12519;SDS011;6325;49.540;8.364;2023-06-14T04:21:47;3.97;;;3.67;;
12519;SDS011;6325;49.540;8.364;2023-06-14T04:24:14;4.03;;;3.72;;
12519;SDS011;6325;49.540;8.364;2023-06-14T04:26:42;4.35;;;4.03;;
12519;SDS011;6325;49.540;8.364;2023-06-14T04:29:10;4.43;;;3.70;;
12519;SDS011;6325;49.540;8.364;2023-06-14T04:31:39;4.03;;;3.72;;
12519;SDS011;6325;49.540;8.364;2023-06-14T04:34:08;4.10;;;3.80;;
12519;SDS011;6325;49.540;8.364;2023-06-14T04:36:41;4.00;;;3.70;;
12519;SDS011;6325;49.540;8.364;2023-06-14T04:39:14;3.95;;;3.65;;
12519;SDS011;6325;49.540;8.364;2023-06-14T04:41:42;4.00;;;3.70;;
12519;SDS011;6325;49.540;8.364;2023-06-14T04:44:11;4.33;;;3.87;;
12519;SDS011;6325;49.540;8.364;2023-06-14T04:46:38;3.60;;;3.40;;
12519;SDS011;6325;49.540;8.364;2023-06-14T04:49:12;4.07;;;3.78;;
12519;SDS011;6325;49.540;8.364;2023-06-14T04:51:40;3.72;;;3.42;;
12519;SDS011;6325;49.540;8.364;2023-06-14T04:54:07;4.20;;;3.60;;
12519;SDS011;6325;49.540;8.364;2023-06-14T04:56:38;3.60;;;3.40;;
12519;SDS011;6325;49.540;8.364;2023-06-14T04:59:07;3.85;;;3.65;;
12519;SDS011;6325;49.540;8.364;2023-06-14T05:01:36;3.70;;;3.50;;
12519;SDS011;6325;49.540;8.364;2023-06-14T05:04:03;3.55;;;3.25;;
12519;SDS011;6325;49.540;8.364;2023-06-14T05:06:32;3.88;;;3.50;;
12519;SDS011;6325;49.540;8.364;2023-06-14T05:08:59;4.13;;;3.72;;
12519;SDS011;6325;49.540;8.364;2023-06-14T05:11:27;4.82;;;3.80;;
12519;SDS011;6325;49.540;8.364;2023-06-14T05:13:54;3.88;;;3.50;;
12519;SDS011;6325;49.540;8.364;2023-06-14T05:16:23;3.60;;;3.40;;
12519;SDS011;6325;49.540;8.364;2023-06-14T05:18:52;3.70;;;3.40;;
12519;SDS011;6325;49.540;8.364;2023-06-14T05:21:20;3.80;;;3.50;;
12519;SDS011;6325;49.540;8.364;2023-06-14T05:23:48;3.72;;;3.42;;
12519;SDS011;6325;49.540;8.364;2023-06-14T05:26:16;3.40;;;3.20;;
12519;SDS011;6325;49.540;8.364;2023-06-14T05:28:43;3.50;;;3.20;;
12519;SDS011;6325;49.540;8.364;2023-06-14T05:31:10;3.55;;;3.35;;
12519;SDS011;6325;49.540;8.364;2023-06-14T05:33:37;3.55;;;3.35;;
12519;SDS011;6325;49.540;8.364;2023-06-14T05:36:05;4.10;;;3.70;;
12519;SDS011;6325;49.540;8.364;2023-06-14T05:38:32;3.40;;;3.20;;
12519;SDS011;6325;49.540;8.364;2023-06-14T05:41:00;3.70;;;3.50;;
12519;SDS011;6325;49.540;8.364;2023-06-14T05:43:28;4.07;;;3.70;;
12519;SDS011;6325;49.540;8.364;2023-06-14T05:45:56;3.53;;;3.22;;
12519;SDS011;6325;49.540;8.364;2023-06-14T05:48:23;3.90;;;3.60;;
12519;SDS011;6325;49.540;8.364;2023-06-14T05:50:51;4.20;;;3.80;;
12519;SDS011;6325;49.540;8.364;2023-06-14T05:53:18;4.03;;;3.72;;
12519;SDS011;6325;49.540;8.364;2023-06-14T05:55:45;4.07;;;3.78;;
12519;SDS011;6325;49.540;8.364;2023-06-14T05:58:13;4.32;;;3.65;;
12519;SDS011;6325;49.540;8.364;2023-06-14T06:00:41;4.07;;;3.67;;
12519;SDS011;6325;49.540;8.364;2023-06-14T06:03:08;3.97;;;3.60;;
12519;SDS011;6325;49.540;8.364;2023-06-14T06:05:36;3.90;;;3.40;;
12519;SDS011;6325;49.540;8.364;2023-06-14T06:08:03;3.92;;;3.63;;
12519;SDS011;6325;49.540;8.364;2023-06-14T06:10:30;4.35;;;3.60;;
12519;SDS011;6325;49.540;8.364;2023-06-14T06:12:58;3.97;;;3.67;;
12519;SDS011;6325;49.540;8.364;2023-06-14T06:15:26;4.95;;;3.75;;
12519;SDS011;6325;49.540;8.364;2023-06-14T06:17:53;3.35;;;3.15;;
12519;SDS011;6325;49.540;8.364;2023-06-14T06:20:21;4.32;;;3.40;;
12519;SDS011;6325;49.540;8.364;2023-06-14T06:22:52;3.58;;;3.30;;
12519;SDS011;6325;49.540;8.364;2023-06-14T06:25:20;3.60;;;3.30;;
12519;SDS011;6325;49.540;8.364;2023-06-14T06:27:51;4.05;;;3.75;;
12519;SDS011;6325;49.540;8.364;2023-06-14T06:30:18;3.83;;;3.53;;
12519;SDS011;6325;49.540;8.364;2023-06-14T06:32:46;3.80;;;3.47;;
12519;SDS011;6325;49.540;8.364;2023-06-14T06:35:14;3.88;;;3.55;;
12519;SDS011;6325;49.540;8.364;2023-06-14T06:37:41;4.13;;;3.37;;
12519;SDS011;6325;49.540;8.364;2023-06-14T06:40:08;3.65;;;3.22;;
12519;SDS011;6325;49.540;8.364;2023-06-14T06:42:36;4.67;;;3.50;;
12519;SDS011;6325;49.540;8.364;2023-06-14T06:45:03;4.18;;;3.78;;
12519;SDS011;6325;49.540;8.364;2023-06-14T06:47:31;3.63;;;3.33;;
12519;SDS011;6325;49.540;8.364;2023-06-14T06:49:59;3.58;;;3.30;;
12519;SDS011;6325;49.540;8.364;2023-06-14T06:52:26;3.85;;;3.47;;
12519;SDS011;6325;49.540;8.364;2023-06-14T06:54:54;4.95;;;3.53;;
12519;SDS011;6325;49.540;8.364;2023-06-14T06:57:22;3.80;;;3.50;;
12519;SDS011;6325;49.540;8.364;2023-06-14T06:59:49;3.42;;;3.22;;
12519;SDS011;6325;49.540;8.364;2023-06-14T07:02:16;3.75;;;3.45;;
12519;SDS011;6325;49.540;8.364;2023-06-14T07:04:43;3.97;;;3.67;;
12519;SDS011;6325;49.540;8.364;2023-06-14T07:07:12;3.50;;;3.20;;
12519;SDS011;6325;49.540;8.364;2023-06-14T07:09:39;4.90;;;3.75;;
12519;SDS011;6325;49.540;8.364;2023-06-14T07:12:07;4.40;;;3.67;;
12519;SDS011;6325;49.540;8.364;2023-06-14T07:14:34;3.57;;;3.27;;
12519;SDS011;6325;49.540;8.364;2023-06-14T07:17:01;3.50;;;3.20;;
12519;SDS011;6325;49.540;8.364;2023-06-14T07:19:28;3.30;;;3.00;;
12519;SDS011;6325;49.540;8.364;2023-06-14T07:21:56;3.35;;;3.05;;
12519;SDS011;6325;49.540;8.364;2023-06-14T07:24:25;3.45;;;3.15;;
12519;SDS011;6325;49.540;8.364;2023-06-14T07:26:53;3.40;;;3.20;;
12519;SDS011;6325;49.540;8.364;2023-06-14T07:29:20;4.65;;;3.20;;
12519;SDS011;6325;49.540;8.364;2023-06-14T07:31:47;3.40;;;3.10;;
12519;SDS011;6325;49.540;8.364;2023-06-14T07:34:14;3.30;;;3.05;;
12519;SDS011;6325;49.540;8.364;2023-06-14T07:36:42;4.70;;;3.17;;
12519;SDS011;6325;49.540;8.364;2023-06-14T07:39:10;4.10;;;3.30;;
12519;SDS011;6325;49.540;8.364;2023-06-14T07:41:39;3.92;;;3.60;;
12519;SDS011;6325;49.540;8.364;2023-06-14T07:44:06;3.20;;;3.00;;
12519;SDS011;6325;49.540;8.364;2023-06-14T07:46:35;3.35;;;3.00;;
12519;SDS011;6325;49.540;8.364;2023-06-14T07:49:03;3.40;;;3.13;;
12519;SDS011;6325;49.540;8.364;2023-06-14T07:51:30;3.33;;;3.10;;
12519;SDS011;6325;49.540;8.364;2023-06-14T07:53:58;3.58;;;3.28;;
12519;SDS011;6325;49.540;8.364;2023-06-14T07:56:27;3.22;;;3.00;;
12519;SDS011;6325;49.540;8.364;2023-06-14T07:58:55;3.50;;;3.20;;
12519;SDS011;6325;49.540;8.364;2023-06-14T08:01:23;3.53;;;3.22;;
12519;SDS011;6325;49.540;8.364;2023-06-14T08:03:50;3.30;;;3.00;;
12519;SDS011;6325;49.540;8.364;2023-06-14T08:06:18;3.10;;;2.90;;
12519;SDS011;6325;49.540;8.364;2023-06-14T08:08:45;3.20;;;3.00;;
12519;SDS011;6325;49.540;8.364;2023-06-14T08:11:12;2.97;;;2.78;;
12519;SDS011;6325;49.540;8.364;2023-06-14T08:13:39;4.55;;;3.25;;
12519;SDS011;6325;49.540;8.364;2023-06-14T08:16:10;3.38;;;3.00;;
12519;SDS011;6325;49.540;8.364;2023-06-14T08:18:37;3.25;;;2.95;;
12519;SDS011;6325;49.540;8.364;2023-06-14T08:21:04;3.53;;;2.92;;
12519;SDS011;6325;49.540;8.364;2023-06-14T08:23:32;3.10;;;2.80;;
12519;SDS011;6325;49.540;8.364;2023-06-14T08:25:59;3.20;;;2.83;;
12519;SDS011;6325;49.540;8.364;2023-06-14T08:28:29;3.15;;;2.90;;
12519;SDS011;6325;49.540;8.364;2023-06-14T08:30:56;4.15;;;3.22;;
12519;SDS011;6325;49.540;8.364;2023-06-14T08:33:24;3.20;;;2.90;;
12519;SDS011;6325;49.540;8.364;2023-06-14T08:35:52;3.50;;;3.20;;
12519;SDS011;6325;49.540;8.364;2023-06-14T08:38:21;3.13;;;2.92;;
12519;SDS011;6325;49.540;8.364;2023-06-14T08:40:50;3.40;;;3.10;;
12519;SDS011;6325;49.540;8.364;2023-06-14T08:43:17;3.03;;;2.83;;
12519;SDS011;6325;49.540;8.364;2023-06-14T08:45:45;3.00;;;2.80;;
12519;SDS011;6325;49.540;8.364;2023-06-14T08:48:13;3.30;;;3.00;;
12519;SDS011;6325;49.540;8.364;2023-06-14T08:50:43;3.03;;;2.80;;
12519;SDS011;6325;49.540;8.364;2023-06-14T08:53:12;2.60;;;2.42;;
12519;SDS011;6325;49.540;8.364;2023-06-14T08:55:41;3.33;;;2.90;;
12519;SDS011;6325;49.540;8.364;2023-06-14T08:58:08;3.13;;;2.85;;
12519;SDS011;6325;49.540;8.364;2023-06-14T09:00:40;4.50;;;2.88;;
12519;SDS011;6325;49.540;8.364;2023-06-14T09:03:08;2.92;;;2.67;;
12519;SDS011;6325;49.540;8.364;2023-06-14T09:05:38;2.90;;;2.70;;
12519;SDS011;6325;49.540;8.364;2023-06-14T09:08:07;2.80;;;2.60;;
12519;SDS011;6325;49.540;8.364;2023-06-14T09:10:35;3.00;;;2.45;;
12519;SDS011;6325;49.540;8.364;2023-06-14T09:13:02;2.70;;;2.50;;
12519;SDS011;6325;49.540;8.364;2023-06-14T09:15:29;2.55;;;2.40;;
12519;SDS011;6325;49.540;8.364;2023-06-14T09:17:57;2.72;;;2.53;;
12519;SDS011;6325;49.540;8.364;2023-06-14T09:20:24;2.63;;;2.42;;
12519;SDS011;6325;49.540;8.364;2023-06-14T09:22:51;2.90;;;2.70;;
12519;SDS011;6325;49.540;8.364;2023-06-14T09:25:21;2.70;;;2.50;;
12519;SDS011;6325;49.540;8.364;2023-06-14T09:27:51;3.53;;;2.90;;
12519;SDS011;6325;49.540;8.364;2023-06-14T09:30:19;2.80;;;2.60;;
12519;SDS011;6325;49.540;8.364;2023-06-14T09:32:46;2.60;;;2.50;;
12519;SDS011;6325;49.540;8.364;2023-06-14T09:35:14;3.22;;;2.50;;
12519;SDS011;6325;49.540;8.364;2023-06-14T09:37:44;2.47;;;2.30;;
12519;SDS011;6325;49.540;8.364;2023-06-14T09:40:11;2.47;;;2.27;;
12519;SDS011;6325;49.540;8.364;2023-06-14T09:42:40;2.20;;;2.10;;
12519;SDS011;6325;49.540;8.364;2023-06-14T09:45:07;2.10;;;2.00;;
12519;SDS011;6325;49.540;8.364;2023-06-14T09:47:36;2.00;;;1.90;;
12519;SDS011;6325;49.540;8.364;2023-06-14T09:50:03;2.08;;;1.92;;
12519;SDS011;6325;49.540;8.364;2023-06-14T09:52:30;2.00;;;1.90;;
12519;SDS011;6325;49.540;8.364;2023-06-14T09:54:58;2.20;;;2.00;;
12519;SDS011;6325;49.540;8.364;2023-06-14T09:57:26;2.38;;;2.20;;
12519;SDS011;6325;49.540;8.364;2023-06-14T09:59:57;2.25;;;2.05;;
12519;SDS011;6325;49.540;8.364;2023-06-14T10:02:26;2.58;;;2.38;;
12519;SDS011;6325;49.540;8.364;2023-06-14T10:04:56;2.30;;;2.20;;
12519;SDS011;6325;49.540;8.364;2023-06-14T10:07:26;2.50;;;2.30;;
12519;SDS011;6325;49.540;8.364;2023-06-14T10:09:55;2.03;;;1.90;;
12519;SDS011;6325;49.540;8.364;2023-06-14T10:12:22;2.10;;;2.00;;
12519;SDS011;6325;49.540;8.364;2023-06-14T10:14:50;2.10;;;2.00;;
12519;SDS011;6325;49.540;8.364;2023-06-14T10:17:22;2.30;;;2.10;;
12519;SDS011;6325;49.540;8.364;2023-06-14T10:19:54;2.40;;;2.20;;
12519;SDS011;6325;49.540;8.364;2023-06-14T10:22:23;2.20;;;2.08;;
12519;SDS011;6325;49.540;8.364;2023-06-14T10:24:53;2.53;;;2.22;;
12519;SDS011;6325;49.540;8.364;2023-06-14T10:27:20;2.33;;;2.22;;
12519;SDS011;6325;49.540;8.364;2023-06-14T10:30:07;2.45;;;2.25;;
12519;SDS011;6325;49.540;8.364;2023-06-14T10:32:36;3.47;;;2.47;;
12519;SDS011;6325;49.540;8.364;2023-06-14T10:35:23;2.20;;;1.98;;
12519;SDS011;6325;49.540;8.364;2023-06-14T10:37:51;2.10;;;2.00;;
12519;SDS011;6325;49.540;8.364;2023-06-14T10:40:29;2.40;;;2.20;;
12519;SDS011;6325;49.540;8.364;2023-06-14T10:42:57;2.40;;;2.20;;
12519;SDS011;6325;49.540;8.364;2023-06-14T10:45:25;2.28;;;2.10;;
12519;SDS011;6325;49.540;8.364;2023-06-14T10:47:57;2.20;;;2.10;;
12519;SDS011;6325;49.540;8.364;2023-06-14T10:50:27;2.40;;;2.20;;
12519;SDS011;6325;49.540;8.364;2023-06-14T10:52:55;1.92;;;1.83;;
12519;SDS011;6325;49.540;8.364;2023-06-14T10:55:22;2.03;;;1.92;;
12519;SDS011;6325;49.540;8.364;2023-06-14T10:57:50;2.10;;;2.00;;
12519;SDS011;6325;49.540;8.364;2023-06-14T11:00:21;2.33;;;2.20;;
12519;SDS011;6325;49.540;8.364;2023-06-14T11:03:10;2.20;;;2.10;;
12519;SDS011;6325;49.540;8.364;2023-06-14T11:05:48;2.17;;;2.08;;
12519;SDS011;6325;49.540;8.364;2023-06-14T11:08:38;2.47;;;2.20;;
12519;SDS011;6325;49.540;8.364;2023-06-14T11:11:06;1.98;;;1.88;;
12519;SDS011;6325;49.540;8.364;2023-06-14T11:13:33;2.22;;;2.03;;
12519;SDS011;6325;49.540;8.364;2023-06-14T11:16:01;2.10;;;2.00;;
12519;SDS011;6325;49.540;8.364;2023-06-14T11:18:29;2.40;;;1.92;;
12519;SDS011;6325;49.540;8.364;2023-06-14T11:20:56;3.42;;;2.22;;
12519;SDS011;6325;49.540;8.364;2023-06-14T11:23:23;2.88;;;2.28;;
12519;SDS011;6325;49.540;8.364;2023-06-14T11:25:51;2.05;;;1.92;;
12519;SDS011;6325;49.540;8.364;2023-06-14T11:28:18;2.05;;;1.95;;
12519;SDS011;6325;49.540;8.364;2023-06-14T11:30:46;2.22;;;2.03;;
12519;SDS011;6325;49.540;8.364;2023-06-14T11:33:16;2.13;;;2.00;;
12519;SDS011;6325;49.540;8.364;2023-06-14T11:35:46;2.30;;;2.10;;
12519;SDS011;6325;49.540;8.364;2023-06-14T11:38:13;2.20;;;2.10;;
12519;SDS011;6325;49.540;8.364;2023-06-14T11:40:40;3.13;;;2.10;;
12519;SDS011;6325;49.540;8.364;2023-06-14T11:43:07;2.50;;;2.30;;
12519;SDS011;6325;49.540;8.364;2023-06-14T11:45:35;3.25;;;2.47;;
12519;SDS011;6325;49.540;8.364;2023-06-14T11:48:02;2.28;;;2.17;;
12519;SDS011;6325;49.540;8.364;2023-06-14T11:50:29;2.50;;;2.20;;
12519;SDS011;6325;49.540;8.364;2023-06-14T11:52:59;2.25;;;2.10;;
12519;SDS011;6325;49.540;8.364;2023-06-14T11:55:31;2.25;;;2.10;;
12519;SDS011;6325;49.540;8.364;2023-06-14T11:57:59;2.40;;;2.20;;
12519;SDS011;6325;49.540;8.364;2023-06-14T12:00:26;2.30;;;2.20;;
12519;SDS011;6325;49.540;8.364;2023-06-14T12:02:54;2.50;;;2.30;;
12519;SDS011;6325;49.540;8.364;2023-06-14T12:05:21;2.53;;;2.33;;
12519;SDS011;6325;49.540;8.364;2023-06-14T12:07:49;2.50;;;2.30;;
12519;SDS011;6325;49.540;8.364;2023-06-14T12:10:20;2.25;;;2.15;;
12519;SDS011;6325;49.540;8.364;2023-06-14T12:12:47;2.38;;;2.20;;
12519;SDS011;6325;49.540;8.364;2023-06-14T12:15:13;2.45;;;2.25;;
12519;SDS011;6325;49.540;8.364;2023-06-14T12:17:41;2.60;;;2.50;;
12519;SDS011;6325;49.540;8.364;2023-06-14T12:20:09;2.50;;;2.30;;
12519;SDS011;6325;49.540;8.364;2023-06-14T12:22:39;2.60;;;2.50;;
12519;SDS011;6325;49.540;8.364;2023-06-14T12:25:24;2.40;;;2.30;;
12519;SDS011;6325;49.540;8.364;2023-06-14T12:27:56;2.40;;;2.30;;
12519;SDS011;6325;49.540;8.364;2023-06-14T12:30:23;2.45;;;2.35;;
12519;SDS011;6325;49.540;8.364;2023-06-14T12:32:50;2.42;;;2.33;;
12519;SDS011;6325;49.540;8.364;2023-06-14T12:35:17;2.50;;;2.30;;
12519;SDS011;6325;49.540;8.364;2023-06-14T12:37:45;2.72;;;2.42;;
12519;SDS011;6325;49.540;8.364;2023-06-14T12:40:12;2.30;;;2.20;;
12519;SDS011;6325;49.540;8.364;2023-06-14T12:42:40;2.95;;;2.38;;
12519;SDS011;6325;49.540;8.364;2023-06-14T12:45:07;2.58;;;2.38;;
12519;SDS011;6325;49.540;8.364;2023-06-14T12:47:35;2.88;;;2.35;;
12519;SDS011;6325;49.540;8.364;2023-06-14T12:50:02;2.35;;;2.25;;
12519;SDS011;6325;49.540;8.364;2023-06-14T12:52:29;2.38;;;2.25;;
12519;SDS011;6325;49.540;8.364;2023-06-14T12:54:56;2.40;;;2.30;;
12519;SDS011;6325;49.540;8.364;2023-06-14T12:57:23;2.47;;;2.38;;
12519;SDS011;6325;49.540;8.364;2023-06-14T12:59:51;2.58;;;2.38;;
12519;SDS011;6325;49.540;8.364;2023-06-14T13:02:19;2.20;;;2.10;;
12519;SDS011;6325;49.540;8.364;2023-06-14T13:04:47;2.70;;;2.50;;
12519;SDS011;6325;49.540;8.364;2023-06-14T13:07:14;2.58;;;2.40;;
12519;SDS011;6325;49.540;8.364;2023-06-14T13:09:41;2.55;;;2.35;;
12519;SDS011;6325;49.540;8.364;2023-06-14T13:12:08;2.20;;;2.10;;
12519;SDS011;6325;49.540;8.364;2023-06-14T13:14:37;2.50;;;2.30;;
12519;SDS011;6325;49.540;8.364;2023-06-14T13:17:07;2.63;;;2.42;;
12519;SDS011;6325;49.540;8.364;2023-06-14T13:19:34;2.70;;;2.30;;
12519;SDS011;6325;49.540;8.364;2023-06-14T13:22:01;4.05;;;2.30;;
12519;SDS011;6325;49.540;8.364;2023-06-14T13:24:29;2.27;;;2.17;;
12519;SDS011;6325;49.540;8.364;2023-06-14T13:26:56;2.23;;;2.10;;
12519;SDS011;6325;49.540;8.364;2023-06-14T13:29:23;2.40;;;2.20;;
12519;SDS011;6325;49.540;8.364;2023-06-14T13:31:51;2.40;;;2.20;;
12519;SDS011;6325;49.540;8.364;2023-06-14T13:34:19;2.33;;;2.20;;
12519;SDS011;6325;49.540;8.364;2023-06-14T13:36:46;2.40;;;2.20;;
12519;SDS011;6325;49.540;8.364;2023-06-14T13:39:13;2.67;;;2.40;;
12519;SDS011;6325;49.540;8.364;2023-06-14T13:41:40;2.28;;;2.17;;
12519;SDS011;6325;49.540;8.364;2023-06-14T13:44:07;2.40;;;2.20;;
12519;SDS011;6325;49.540;8.364;2023-06-14T13:46:36;2.45;;;2.25;;
12519;SDS011;6325;49.540;8.364;2023-06-14T13:49:02;2.60;;;2.40;;
12519;SDS011;6325;49.540;8.364;2023-06-14T13:51:31;2.28;;;2.10;;
12519;SDS011;6325;49.540;8.364;2023-06-14T13:54:00;2.20;;;2.10;;
12519;SDS011;6325;49.540;8.364;2023-06-14T13:56:26;2.50;;;2.30;;
12519;SDS011;6325;49.540;8.364;2023-06-14T13:58:53;2.35;;;2.20;;
12519;SDS011;6325;49.540;8.364;2023-06-14T14:01:20;2.53;;;2.10;;
12519;SDS011;6325;49.540;8.364;2023-06-14T14:03:47;2.20;;;2.08;;
12519;SDS011;6325;49.540;8.364;2023-06-14T14:06:15;2.20;;;2.10;;
12519;SDS011;6325;49.540;8.364;2023-06-14T14:08:43;2.50;;;2.30;;
12519;SDS011;6325;49.540;8.364;2023-06-14T14:11:10;2.42;;;2.28;;
12519;SDS011;6325;49.540;8.364;2023-06-14T14:13:37;2.72;;;2.30;;
12519;SDS011;6325;49.540;8.364;2023-06-14T14:16:05;2.38;;;2.17;;
12519;SDS011;6325;49.540;8.364;2023-06-14T14:18:32;2.38;;;2.08;;
12519;SDS011;6325;49.540;8.364;2023-06-14T14:21:00;2.22;;;2.10;;
12519;SDS011;6325;49.540;8.364;2023-06-14T14:23:27;3.10;;;2.30;;
12519;SDS011;6325;49.540;8.364;2023-06-14T14:25:55;2.10;;;2.00;;
12519;SDS011;6325;49.540;8.364;2023-06-14T14:28:22;2.20;;;2.10;;
12519;SDS011;6325;49.540;8.364;2023-06-14T14:30:50;2.50;;;2.17;;
12519;SDS011;6325;49.540;8.364;2023-06-14T14:33:18;2.20;;;2.10;;
12519;SDS011;6325;49.540;8.364;2023-06-14T14:35:45;2.53;;;2.30;;
12519;SDS011;6325;49.540;8.364;2023-06-14T14:38:12;2.20;;;2.10;;
12519;SDS011;6325;49.540;8.364;2023-06-14T14:40:39;2.20;;;2.00;;
12519;SDS011;6325;49.540;8.364;2023-06-14T14:43:08;2.20;;;2.00;;
12519;SDS011;6325;49.540;8.364;2023-06-14T14:45:35;2.47;;;2.28;;
12519;SDS011;6325;49.540;8.364;2023-06-14T14:48:02;2.47;;;2.30;;
12519;SDS011;6325;49.540;8.364;2023-06-14T14:50:29;2.30;;;2.20;;
12519;SDS011;6325;49.540;8.364;2023-06-14T14:52:56;2.40;;;2.30;;
12519;SDS011;6325;49.540;8.364;2023-06-14T14:55:23;2.47;;;2.30;;
12519;SDS011;6325;49.540;8.364;2023-06-14T14:57:50;2.60;;;2.40;;
12519;SDS011;6325;49.540;8.364;2023-06-14T15:00:18;2.53;;;2.40;;
12519;SDS011;6325;49.540;8.364;2023-06-14T15:02:45;2.00;;;1.90;;
12519;SDS011;6325;49.540;8.364;2023-06-14T15:05:12;2.70;;;2.50;;